Time;durP1;ratioP1;P1;durP2;ratioP2;P2;SDS_P1;SDS_P2;PMS_P1;PMS_P2;Temp;Humidity;BMP_temperature;BMP_pressure;BME280_temperature;BME280_humidity;BME280_pressure;Samples;Min_cycle;Max_cycle;Signal;HPM_P1;HPM_P2
2022/07/20 00:00:49;;;;;;;17.00;3.45;;;27.40;60.50;;;;;;5056245;28;20541;-66
2022/07/20 00:03:15;;;;;;;16.42;4.30;;;27.70;60.70;;;;;;5074236;28;20047;-67
2022/07/20 00:05:42;;;;;;;18.17;6.03;;;27.70;60.30;;;;;;5074043;28;20059;-66
2022/07/20 00:08:09;;;;;;;18.48;6.93;;;27.70;61.30;;;;;;5074130;28;20055;-66
2022/07/20 00:13:20;;;;;;;18.65;7.90;;;27.60;62.70;;;;;;5074050;28;20094;-66
2022/07/20 00:15:46;;;;;;;16.42;7.47;;;27.30;63.30;;;;;;5074048;28;20385;-66
2022/07/20 00:18:12;;;;;;;20.10;7.63;;;27.40;63.80;;;;;;5073612;28;20032;-66
2022/07/20 00:20:38;;;;;;;18.38;6.55;;;27.50;63.70;;;;;;5073895;28;20438;-68
2022/07/20 00:23:04;;;;;;;26.00;8.27;;;27.30;63.20;;;;;;5073768;28;20040;-65
2022/07/20 00:25:30;;;;;;;24.42;9.25;;;27.50;63.30;;;;;;5055696;28;20032;-66
2022/07/20 00:27:56;;;;;;;28.02;10.93;;;27.50;64.20;;;;;;5074398;28;20024;-65
2022/07/20 00:30:22;;;;;;;32.72;11.65;;;27.20;65.90;;;;;;5073634;28;20020;-66
2022/07/20 00:32:48;;;;;;;27.10;11.95;;;26.80;67.40;;;;;;5073574;28;20019;-67
2022/07/20 00:35:15;;;;;;;30.98;12.50;;;26.70;68.10;;;;;;5073759;28;20389;-66
2022/07/20 00:37:43;;;;;;;24.45;11.32;;;26.90;68.50;;;;;;5073755;28;20048;-66
2022/07/20 00:40:12;;;;;;;26.25;11.23;;;26.70;67.50;;;;;;5073748;28;20028;-65
2022/07/20 00:42:38;;;;;;;29.63;12.93;;;26.50;68.00;;;;;;5073439;28;20438;-66
2022/07/20 00:45:06;;;;;;;27.15;14.70;;;26.10;69.50;;;;;;5073763;28;20033;-65
2022/07/20 00:47:32;;;;;;;37.35;15.98;;;26.00;71.50;;;;;;5073098;28;20021;-65
2022/07/20 00:49:58;;;;;;;27.17;15.65;;;25.90;73.00;;;;;;5073520;28;20103;-66
2022/07/20 00:52:24;;;;;;;38.25;18.00;;;25.70;75.30;;;;;;5073059;28;20116;-66
2022/07/20 00:54:53;;;;;;;46.10;20.23;;;25.70;76.40;;;;;;5073346;28;20404;-67
2022/07/20 00:57:20;;;;;;;32.80;18.67;;;25.40;78.90;;;;;;5055359;28;20407;-65
2022/07/20 00:59:46;;;;;;;39.80;20.98;;;25.40;82.30;;;;;;5073328;28;20095;-66
2022/07/20 01:02:12;;;;;;;43.72;21.15;;;25.10;86.80;;;;;;5072814;28;20111;-65
2022/07/20 01:04:38;;;;;;;32.95;20.80;;;25.00;91.20;;;;;;5073251;28;20112;-65
2022/07/20 01:07:04;;;;;;;35.53;20.10;;;24.90;93.70;;;;;;5073148;28;20090;-66
2022/07/20 01:09:30;;;;;;;34.50;21.75;;;24.90;95.40;;;;;;5072287;28;20036;-66
2022/07/20 01:11:56;;;;;;;46.75;23.35;;;25.00;96.70;;;;;;5048967;28;20086;-65
2022/07/20 01:14:21;;;;;;;43.63;23.00;;;25.20;97.20;;;;;;5067604;28;20032;-67
2022/07/20 01:16:47;;;;;;;41.25;23.73;;;25.10;98.20;;;;;;5072778;28;20101;-65
2022/07/20 01:19:13;;;;;;;44.40;23.83;;;25.10;98.70;;;;;;5073224;28;20025;-65
2022/07/20 01:21:42;;;;;;;42.75;25.65;;;25.00;99.10;;;;;;5072899;28;20040;-65
2022/07/20 01:24:10;;;;;;;44.28;23.88;;;24.90;99.90;;;;;;5073642;28;20017;-65
2022/07/20 01:26:39;;;;;;;46.42;25.10;;;25.00;99.70;;;;;;5054616;28;20040;-66
2022/07/20 01:29:04;;;;;;;49.15;24.40;;;24.90;99.90;;;;;;5072882;28;20387;-65
2022/07/20 01:31:30;;;;;;;43.42;25.45;;;25.00;99.90;;;;;;5072669;28;20036;-66
2022/07/20 01:33:56;;;;;;;47.75;24.15;;;24.90;99.90;;;;;;5072657;28;20021;-66
2022/07/20 01:36:22;;;;;;;41.25;26.42;;;24.80;99.90;;;;;;5073120;28;20389;-66
2022/07/20 01:38:48;;;;;;;52.33;25.55;;;24.80;99.90;;;;;;5054753;28;20476;-66
2022/07/20 01:41:13;;;;;;;47.45;27.23;;;24.50;99.90;;;;;;5072801;28;20063;-65
2022/07/20 01:43:39;;;;;;;48.42;25.05;;;24.50;99.90;;;;;;5072717;28;20032;-65
2022/07/20 01:46:05;;;;;;;43.70;24.48;;;24.50;99.90;;;;;;5072574;28;20024;-66
2022/07/20 01:48:31;;;;;;;42.55;24.85;;;24.60;99.90;;;;;;5072949;28;20074;-66
2022/07/20 01:50:57;;;;;;;42.38;26.58;;;24.40;99.90;;;;;;5072620;28;20461;-65
2022/07/20 01:53:22;;;;;;;46.78;26.15;;;24.60;99.90;;;;;;5072607;28;20033;-65
2022/07/20 01:55:48;;;;;;;48.20;25.70;;;24.40;99.90;;;;;;5072462;28;20025;-65
2022/07/20 01:58:14;;;;;;;44.42;24.67;;;24.30;99.90;;;;;;5072740;28;20052;-65
2022/07/20 02:00:40;;;;;;;48.47;25.38;;;24.40;99.90;;;;;;5072149;28;20477;-65
2022/07/20 02:03:05;;;;;;;42.47;26.63;;;24.50;99.90;;;;;;5072404;28;20028;-65
2022/07/20 02:05:31;;;;;;;48.65;26.02;;;24.30;99.90;;;;;;5072640;28;20028;-71
2022/07/20 02:07:57;;;;;;;44.85;26.05;;;24.30;99.90;;;;;;5072493;28;20051;-66
2022/07/20 02:10:23;;;;;;;36.63;25.08;;;24.30;99.90;;;;;;5072612;28;20376;-65
2022/07/20 02:12:48;;;;;;;39.85;25.20;;;24.20;99.90;;;;;;5037689;28;20465;-65
2022/07/20 02:16:14;;;;;;;44.33;24.88;;;24.20;99.90;;;;;;5063645;28;20028;-65
2022/07/20 02:18:05;;;;;;;37.05;25.10;;;24.10;99.90;;;;;;5071891;28;20035;-66
2022/07/20 02:20:31;;;;;;;48.03;25.73;;;23.90;99.90;;;;;;5073703;28;20491;-65
2022/07/20 02:22:56;;;;;;;40.45;25.17;;;23.80;99.90;;;;;;5076244;28;20016;-73
2022/07/20 02:25:22;;;;;;;41.55;26.60;;;24.00;99.90;;;;;;5076438;28;20468;-66
2022/07/20 02:27:48;;;;;;;38.95;23.83;;;24.10;99.90;;;;;;5076081;28;20523;-66
2022/07/20 02:30:14;;;;;;;44.65;25.73;;;24.30;99.90;;;;;;5076069;28;20074;-66
2022/07/20 02:32:40;;;;;;;44.42;25.10;;;24.40;99.90;;;;;;5075697;28;20028;-66
2022/07/20 02:35:06;;;;;;;46.95;25.08;;;24.20;99.90;;;;;;5076224;28;20075;-66
2022/07/20 02:37:32;;;;;;;44.75;25.00;;;24.00;99.90;;;;;;5075819;28;20025;-66
2022/07/20 02:39:57;;;;;;;37.35;23.70;;;24.10;99.90;;;;;;5058385;28;20025;-66
2022/07/20 02:42:23;;;;;;;44.15;25.20;;;24.20;99.90;;;;;;5075972;28;20385;-66
2022/07/20 02:44:49;;;;;;;41.97;25.20;;;24.30;99.90;;;;;;5075500;28;20024;-66
2022/07/20 02:47:14;;;;;;;49.05;27.05;;;24.50;99.90;;;;;;5057974;28;20598;-66
2022/07/20 02:49:40;;;;;;;47.05;26.08;;;24.30;99.90;;;;;;5075363;28;20056;-66
2022/07/20 02:52:06;;;;;;;40.50;25.02;;;24.30;99.90;;;;;;5075694;28;20074;-66
2022/07/20 02:54:32;;;;;;;45.28;25.23;;;24.20;99.90;;;;;;5075516;28;20357;-65
2022/07/20 02:56:57;;;;;;;39.50;24.80;;;24.30;99.90;;;;;;5075560;28;20481;-65
2022/07/20 02:59:23;;;;;;;39.88;24.60;;;24.30;99.90;;;;;;5075287;28;20059;-66
2022/07/20 03:01:49;;;;;;;38.00;24.35;;;24.00;99.90;;;;;;5075464;28;20017;-65
2022/07/20 03:04:15;;;;;;;45.53;24.00;;;23.80;99.90;;;;;;5075433;28;20033;-65
2022/07/20 03:06:40;;;;;;;40.83;24.02;;;23.70;99.90;;;;;;5075376;28;20020;-66
2022/07/20 03:09:06;;;;;;;48.83;24.92;;;23.90;99.90;;;;;;5075403;28;20025;-66
2022/07/20 03:11:32;;;;;;;39.95;23.25;;;24.10;99.90;;;;;;5075165;28;20040;-66
2022/07/20 03:13:57;;;;;;;37.58;22.27;;;23.90;99.90;;;;;;5075020;28;20028;-65
2022/07/20 03:16:23;;;;;;;40.03;22.95;;;23.80;99.90;;;;;;5075494;28;20474;-66
2022/07/20 03:18:49;;;;;;;47.85;24.15;;;23.70;99.90;;;;;;5057293;28;20066;-66
2022/07/20 03:21:15;;;;;;;35.25;22.65;;;23.80;99.90;;;;;;5057085;28;20032;-65
2022/07/20 03:23:40;;;;;;;40.13;22.83;;;23.60;99.90;;;;;;5074789;28;20070;-66
2022/07/20 03:26:06;;;;;;;36.35;21.13;;;23.70;99.90;;;;;;5075139;28;20036;-65
2022/07/20 03:28:32;;;;;;;36.47;21.20;;;23.90;99.90;;;;;;5074900;28;20032;-65
2022/07/20 03:30:58;;;;;;;37.45;21.45;;;23.90;99.90;;;;;;5074672;28;20036;-65
2022/07/20 03:33:24;;;;;;;41.85;21.15;;;23.90;99.90;;;;;;5074129;28;20113;-66
2022/07/20 03:35:49;;;;;;;33.97;20.80;;;24.00;99.90;;;;;;5074774;28;20059;-65
2022/07/20 03:38:15;;;;;;;42.10;20.92;;;23.90;99.90;;;;;;5074965;28;20017;-65
2022/07/20 03:40:41;;;;;;;36.47;20.38;;;23.90;99.90;;;;;;5074546;28;20444;-65
2022/07/20 03:43:07;;;;;;;44.63;20.85;;;23.70;99.90;;;;;;5075178;28;20119;-66
2022/07/20 03:45:33;;;;;;;36.85;20.00;;;23.80;99.90;;;;;;5074729;28;20078;-66
2022/07/20 03:47:59;;;;;;;35.97;20.88;;;23.40;99.90;;;;;;5074687;28;20086;-66
2022/07/20 03:50:25;;;;;;;37.25;21.95;;;23.40;99.90;;;;;;5074633;28;20092;-65
2022/07/20 03:52:51;;;;;;;33.55;20.90;;;23.60;99.90;;;;;;5074631;28;20032;-65
2022/07/20 03:55:17;;;;;;;39.60;20.95;;;23.40;99.90;;;;;;5074423;28;20041;-65
2022/07/20 03:57:43;;;;;;;37.65;21.10;;;23.40;99.90;;;;;;5074000;28;20020;-66
2022/07/20 04:00:09;;;;;;;42.70;21.10;;;23.40;99.90;;;;;;5074168;28;20016;-66
2022/07/20 04:02:35;;;;;;;34.45;20.48;;;23.60;99.90;;;;;;5056476;28;20028;-66
2022/07/20 04:05:01;;;;;;;34.53;17.75;;;23.50;99.90;;;;;;5046595;28;20028;-66
2022/07/20 04:07:26;;;;;;;38.97;19.42;;;23.30;99.90;;;;;;5074545;28;20487;-65
2022/07/20 04:09:52;;;;;;;27.38;18.80;;;23.40;99.90;;;;;;5074116;28;20028;-66
2022/07/20 04:12:22;;;;;;;33.50;19.17;;;23.30;99.90;;;;;;5073680;28;20040;-65
2022/07/20 04:14:52;;;;;;;31.95;17.58;;;23.30;99.90;;;;;;5074017;28;20060;-66
2022/07/20 04:17:19;;;;;;;30.88;16.88;;;23.30;99.90;;;;;;5074173;28;20029;-65
2022/07/20 04:19:45;;;;;;;30.75;16.85;;;23.10;99.90;;;;;;5074093;28;20483;-66
2022/07/20 04:22:11;;;;;;;26.63;17.33;;;23.30;99.90;;;;;;5073837;28;20035;-67
2022/07/20 04:24:37;;;;;;;26.83;17.10;;;23.30;99.90;;;;;;5073830;28;20039;-65
2022/07/20 04:27:04;;;;;;;32.55;16.63;;;23.20;99.90;;;;;;5073308;28;20039;-66
2022/07/20 04:29:30;;;;;;;31.77;17.73;;;23.20;99.90;;;;;;5056089;28;20441;-66
2022/07/20 04:31:56;;;;;;;30.73;17.70;;;23.20;99.90;;;;;;5073988;28;20427;-66
2022/07/20 04:34:22;;;;;;;32.80;15.88;;;23.20;99.90;;;;;;5073682;28;20024;-65
2022/07/20 04:36:48;;;;;;;31.15;17.20;;;23.00;99.90;;;;;;5073597;28;20361;-66
2022/07/20 04:39:14;;;;;;;36.63;16.02;;;22.90;99.90;;;;;;5073542;28;20033;-66
2022/07/20 04:41:40;;;;;;;28.00;16.05;;;23.00;99.90;;;;;;5055820;28;20024;-66
2022/07/20 04:44:06;;;;;;;25.85;16.10;;;23.10;99.90;;;;;;5073172;28;20032;-65
2022/07/20 04:46:32;;;;;;;28.77;15.13;;;22.90;99.90;;;;;;5073608;28;20381;-66
2022/07/20 04:48:58;;;;;;;32.95;15.27;;;23.10;99.90;;;;;;5073702;28;20033;-65
2022/07/20 04:51:24;;;;;;;24.92;14.13;;;23.40;99.90;;;;;;5073264;28;20029;-66
2022/07/20 04:53:50;;;;;;;23.90;14.32;;;23.60;99.90;;;;;;5073142;28;20040;-65
2022/07/20 04:56:18;;;;;;;27.83;15.00;;;23.60;99.90;;;;;;5073341;28;20044;-66
2022/07/20 04:58:44;;;;;;;26.20;14.02;;;23.50;99.90;;;;;;5073501;28;20090;-65
2022/07/20 05:01:09;;;;;;;22.55;14.18;;;23.70;99.90;;;;;;5073232;28;20117;-66
2022/07/20 05:03:35;;;;;;;29.27;13.40;;;23.60;99.90;;;;;;5073356;28;20064;-65
2022/07/20 05:06:01;;;;;;;27.17;14.50;;;23.40;99.90;;;;;;5073194;28;20086;-65
2022/07/20 05:08:26;;;;;;;30.05;14.63;;;23.70;99.90;;;;;;5072884;28;20028;-65
2022/07/20 05:10:52;;;;;;;22.48;13.15;;;23.80;99.90;;;;;;5073190;28;20469;-66
2022/07/20 05:13:18;;;;;;;23.88;13.23;;;23.50;99.90;;;;;;5072782;28;20031;-66
2022/07/20 05:15:45;;;;;;;24.42;12.65;;;23.70;99.90;;;;;;5073447;28;20052;-65
2022/07/20 05:18:11;;;;;;;25.65;12.40;;;23.70;99.90;;;;;;5073145;28;20082;-65
2022/07/20 05:20:36;;;;;;;25.00;12.70;;;23.40;99.90;;;;;;5073080;28;20024;-66
2022/07/20 05:23:02;;;;;;;19.65;12.27;;;23.40;99.90;;;;;;5072569;28;20461;-66
2022/07/20 05:25:28;;;;;;;23.08;12.82;;;23.30;99.90;;;;;;5072872;28;20034;-65
2022/07/20 05:27:53;;;;;;;23.42;12.82;;;23.50;99.90;;;;;;5072834;28;20084;-65
2022/07/20 05:30:19;;;;;;;22.55;12.68;;;23.70;99.90;;;;;;5073014;28;20048;-66
2022/07/20 05:32:45;;;;;;;21.88;13.45;;;23.50;99.90;;;;;;5072587;28;20481;-67
2022/07/20 05:35:11;;;;;;;25.48;12.30;;;23.70;99.90;;;;;;5072854;28;20033;-67
2022/07/20 05:37:36;;;;;;;26.52;13.10;;;23.50;99.90;;;;;;5055443;28;20039;-66
2022/07/20 05:40:03;;;;;;;29.38;13.35;;;23.40;99.90;;;;;;5055237;28;20012;-69
2022/07/20 05:42:28;;;;;;;24.30;12.60;;;23.20;99.90;;;;;;5059032;28;20484;-67
2022/07/20 05:44:54;;;;;;;25.33;12.27;;;23.10;99.90;;;;;;5053772;28;20017;-67
2022/07/20 05:47:22;;;;;;;19.40;11.77;;;23.10;99.90;;;;;;5050847;28;20029;-67
2022/07/20 05:49:48;;;;;;;26.67;11.93;;;23.10;99.90;;;;;;5055160;28;20094;-67
2022/07/20 05:52:17;;;;;;;25.98;11.38;;;23.20;99.90;;;;;;5063316;28;20044;-67
2022/07/20 05:54:43;;;;;;;21.42;12.20;;;23.10;99.90;;;;;;5055531;28;20033;-70
2022/07/20 05:57:09;;;;;;;22.10;11.02;;;23.30;99.90;;;;;;5056676;28;20082;-67
2022/07/20 05:59:35;;;;;;;20.20;12.15;;;23.10;99.90;;;;;;5055564;28;20045;-67
2022/07/20 06:02:00;;;;;;;22.65;11.57;;;23.30;99.90;;;;;;5066093;28;20453;-67
2022/07/20 06:04:26;;;;;;;22.52;12.07;;;23.10;99.90;;;;;;5056476;28;20025;-69
2022/07/20 06:06:52;;;;;;;22.20;11.45;;;23.10;99.90;;;;;;5056304;28;20554;-67
2022/07/20 06:09:17;;;;;;;24.05;12.38;;;23.20;99.90;;;;;;5056272;28;20086;-67
2022/07/20 06:11:43;;;;;;;22.25;13.18;;;23.30;99.90;;;;;;5056301;28;20025;-67
2022/07/20 06:14:09;;;;;;;24.63;13.35;;;23.10;99.90;;;;;;5056309;28;20561;-68
2022/07/20 06:16:35;;;;;;;26.33;12.20;;;23.20;99.90;;;;;;5056235;28;20078;-69
2022/07/20 06:19:00;;;;;;;19.48;13.38;;;23.20;99.90;;;;;;5056165;28;20389;-67
2022/07/20 06:21:26;;;;;;;28.48;12.55;;;23.30;99.90;;;;;;5055970;28;20029;-68
2022/07/20 06:23:52;;;;;;;21.88;11.75;;;23.40;99.90;;;;;;5073039;28;20048;-69
2022/07/20 06:26:18;;;;;;;22.20;11.40;;;23.70;99.90;;;;;;5058045;28;20037;-68
2022/07/20 06:28:44;;;;;;;19.67;10.50;;;23.70;99.90;;;;;;5058027;28;20473;-67
2022/07/20 06:31:10;;;;;;;24.25;11.27;;;23.50;99.90;;;;;;5052461;28;20571;-67
2022/07/20 06:33:35;;;;;;;18.45;10.82;;;23.70;99.90;;;;;;5067117;28;20493;-67
2022/07/20 06:36:01;;;;;;;24.63;11.10;;;23.90;99.90;;;;;;5059226;28;20542;-68
2022/07/20 06:38:27;;;;;;;20.45;10.85;;;24.20;99.90;;;;;;5056492;28;20040;-67
2022/07/20 06:40:53;;;;;;;23.58;11.35;;;24.20;99.90;;;;;;5054661;28;20047;-68
2022/07/20 06:43:19;;;;;;;20.35;11.23;;;24.10;99.90;;;;;;5062852;28;20089;-67
2022/07/20 06:45:46;;;;;;;21.42;10.75;;;24.40;99.90;;;;;;5065218;28;20021;-67
2022/07/20 06:48:12;;;;;;;18.17;10.38;;;24.50;99.90;;;;;;5058178;28;20376;-68
2022/07/20 06:50:38;;;;;;;18.13;11.00;;;24.20;99.90;;;;;;5037340;28;20137;-67
2022/07/20 06:53:04;;;;;;;19.80;11.43;;;24.40;99.90;;;;;;5055613;28;20119;-67
2022/07/20 06:55:29;;;;;;;23.17;10.38;;;24.50;99.90;;;;;;5068020;28;20411;-68
2022/07/20 06:57:55;;;;;;;25.67;10.52;;;24.50;99.90;;;;;;5061945;28;20048;-67
2022/07/20 07:00:21;;;;;;;17.92;9.05;;;24.70;99.90;;;;;;5056948;28;20032;-67
2022/07/20 07:02:47;;;;;;;24.60;9.68;;;24.60;99.90;;;;;;5054187;28;20028;-69
2022/07/20 07:05:12;;;;;;;21.70;9.68;;;24.80;99.90;;;;;;5053431;28;20103;-67
2022/07/20 07:07:38;;;;;;;20.67;9.23;;;24.50;99.90;;;;;;5052566;28;20022;-67
2022/07/20 07:10:04;;;;;;;19.05;9.15;;;24.00;99.90;;;;;;5052933;28;20476;-67
2022/07/20 07:12:30;;;;;;;31.42;10.52;;;24.00;99.90;;;;;;5050758;28;20040;-67
2022/07/20 07:14:56;;;;;;;21.88;8.93;;;24.30;99.90;;;;;;5063179;28;20099;-67
2022/07/20 07:17:22;;;;;;;23.85;11.02;;;24.30;99.90;;;;;;5060163;28;20025;-70
2022/07/20 07:19:48;;;;;;;21.95;9.15;;;24.20;99.90;;;;;;5053788;28;20033;-73
2022/07/20 07:22:13;;;;;;;19.52;9.20;;;24.30;99.90;;;;;;5060201;28;20028;-73
2022/07/20 07:24:39;;;;;;;25.27;8.00;;;24.50;99.90;;;;;;5074193;28;20021;-71
2022/07/20 07:27:06;;;;;;;17.23;7.95;;;24.10;99.90;;;;;;5074182;28;20476;-73
2022/07/20 07:29:32;;;;;;;20.02;8.98;;;23.90;99.90;;;;;;5074313;28;20461;-73
2022/07/20 07:32:01;;;;;;;17.20;8.80;;;24.00;99.90;;;;;;5074263;28;20029;-73
2022/07/20 07:34:28;;;;;;;15.07;8.95;;;24.30;99.90;;;;;;5055460;28;20032;-73
2022/07/20 07:36:54;;;;;;;20.23;8.05;;;24.40;99.90;;;;;;5074276;28;20157;-73
2022/07/20 07:39:20;;;;;;;21.20;8.48;;;24.00;99.90;;;;;;5073824;28;20033;-70
2022/07/20 07:41:46;;;;;;;20.30;8.52;;;23.80;99.90;;;;;;5074048;28;20031;-72
2022/07/20 07:44:12;;;;;;;17.38;8.27;;;23.80;99.90;;;;;;5072611;28;20020;-71
2022/07/20 07:46:38;;;;;;;16.42;8.18;;;23.90;99.90;;;;;;5073939;28;20036;-73
2022/07/20 07:49:04;;;;;;;16.23;8.88;;;23.80;99.90;;;;;;5073067;28;20020;-72
2022/07/20 07:51:30;;;;;;;17.55;8.38;;;23.90;99.90;;;;;;5073581;28;20047;-70
2022/07/20 07:53:56;;;;;;;21.10;8.80;;;23.80;99.90;;;;;;5101680;22;20122;-73
2022/07/20 07:56:22;;;;;;;23.98;8.85;;;23.80;99.90;;;;;;5093489;28;20531;-72
2022/07/20 07:58:48;;;;;;;21.50;8.30;;;23.80;99.90;;;;;;5093114;28;20024;-72
2022/07/20 08:01:14;;;;;;;17.10;8.73;;;24.10;99.90;;;;;;5092770;28;20027;-71
2022/07/20 08:03:40;;;;;;;13.07;7.80;;;24.10;99.90;;;;;;5079385;28;20047;-73
2022/07/20 08:06:06;;;;;;;18.33;8.32;;;24.00;99.90;;;;;;5073803;28;20483;-71
2022/07/20 08:08:32;;;;;;;21.45;9.57;;;23.50;99.90;;;;;;5056784;28;20070;-69
2022/07/20 08:10:58;;;;;;;13.63;8.00;;;23.10;99.90;;;;;;5055619;28;20428;-71
2022/07/20 08:13:24;;;;;;;30.17;10.35;;;22.90;99.90;;;;;;5057135;28;20388;-63
2022/07/20 08:15:50;;;;;;;18.60;8.68;;;22.90;99.90;;;;;;5026616;28;20112;-73
2022/07/20 08:18:16;;;;;;;19.85;9.48;;;23.00;99.90;;;;;;5052852;28;20113;-66
2022/07/20 08:20:42;;;;;;;29.30;10.18;;;23.20;99.90;;;;;;5042658;28;20035;-71
2022/07/20 08:23:08;;;;;;;25.38;9.00;;;23.70;99.90;;;;;;5069293;28;20037;-73
2022/07/20 08:25:34;;;;;;;18.38;8.48;;;24.10;99.90;;;;;;5073123;28;20029;-63
2022/07/20 08:28:17;;;;;;;28.38;9.25;;;24.40;99.90;;;;;;5073174;28;20103;-73
2022/07/20 08:30:46;;;;;;;19.90;8.68;;;24.90;99.90;;;;;;5072885;28;20261;-71
2022/07/20 08:33:12;;;;;;;19.02;8.68;;;25.10;99.90;;;;;;5072475;28;20036;-72
2022/07/20 08:35:38;;;;;;;17.02;8.43;;;24.80;99.90;;;;;;5072996;28;20039;-71
2022/07/20 08:38:05;;;;;;;20.17;9.18;;;24.80;99.90;;;;;;5069351;28;20025;-72
2022/07/20 08:40:31;;;;;;;16.25;8.48;;;24.50;99.90;;;;;;5049926;28;20092;-63
2022/07/20 08:42:57;;;;;;;15.13;8.57;;;24.60;99.90;;;;;;5072584;28;20017;-73
2022/07/20 08:45:24;;;;;;;29.33;9.40;;;25.00;99.90;;;;;;5072570;28;20515;-70
2022/07/20 08:47:50;;;;;;;16.45;8.10;;;24.60;99.90;;;;;;5067313;28;20032;-69
2022/07/20 08:50:28;;;;;;;20.70;8.27;;;24.10;99.90;;;;;;5055022;28;20025;-69
2022/07/20 08:52:55;;;;;;;19.73;8.48;;;24.10;99.90;;;;;;5054024;28;20037;-73
2022/07/20 08:55:21;;;;;;;29.45;9.20;;;24.40;99.90;;;;;;5067516;28;20021;-73
2022/07/20 08:57:47;;;;;;;20.35;8.90;;;24.50;99.90;;;;;;5062202;28;20039;-68
2022/07/20 09:00:14;;;;;;;22.85;9.23;;;24.00;99.90;;;;;;5048892;28;20103;-63
2022/07/20 09:03:04;;;;;;;18.02;9.27;;;23.00;99.90;;;;;;5050388;28;20025;-69
2022/07/20 09:05:35;;;;;;;19.90;9.55;;;23.00;99.90;;;;;;5041431;28;20461;-67
2022/07/20 09:08:02;;;;;;;24.02;10.32;;;23.20;99.90;;;;;;5057977;28;20569;-65
2022/07/20 09:10:30;;;;;;;23.60;8.73;;;23.20;99.90;;;;;;5052010;28;20017;-65
2022/07/20 09:13:00;;;;;;;25.35;9.70;;;22.80;99.90;;;;;;5047437;28;20478;-63
2022/07/20 09:15:31;;;;;;;20.98;9.38;;;23.00;99.90;;;;;;5042994;28;20033;-71
2022/07/20 09:18:13;;;;;;;26.08;10.43;;;23.00;99.90;;;;;;5043901;28;20038;-66
2022/07/20 09:21:01;;;;;;;15.57;8.27;;;23.30;99.90;;;;;;5047119;28;20116;-72
2022/07/20 09:23:29;;;;;;;25.67;10.32;;;22.80;99.90;;;;;;5061980;28;20060;-63
2022/07/20 09:26:04;;;;;;;24.27;9.95;;;23.10;99.90;;;;;;5051064;28;20074;-71
2022/07/20 09:28:51;;;;;;;18.67;10.18;;;23.50;99.90;;;;;;5058111;28;20025;-68
2022/07/20 09:31:30;;;;;;;28.38;11.43;;;23.80;99.90;;;;;;5038415;28;20033;-68
2022/07/20 09:34:13;;;;;;;18.20;9.98;;;23.70;99.90;;;;;;5072344;28;20044;-74
2022/07/20 09:36:42;;;;;;;23.10;10.35;;;23.40;99.90;;;;;;5072137;28;20035;-71
2022/07/20 09:39:13;;;;;;;18.55;9.63;;;23.60;99.90;;;;;;5057219;28;20039;-71
2022/07/20 09:41:40;;;;;;;18.98;8.52;;;23.60;99.90;;;;;;5054166;28;20465;-68
2022/07/20 09:44:10;;;;;;;16.60;9.85;;;23.40;99.90;;;;;;5071159;28;20024;-71
2022/07/20 09:46:38;;;;;;;21.52;9.82;;;23.20;99.90;;;;;;5068091;28;20484;-69
2022/07/20 09:49:08;;;;;;;25.67;10.63;;;23.10;99.90;;;;;;5049272;28;20029;-69
2022/07/20 09:51:39;;;;;;;18.13;9.65;;;23.40;99.90;;;;;;5041556;28;20041;-71
2022/07/20 09:54:06;;;;;;;18.17;9.07;;;23.30;99.90;;;;;;5053093;28;20485;-71
2022/07/20 09:56:34;;;;;;;29.23;11.25;;;23.20;99.90;;;;;;5056954;28;20037;-71
2022/07/20 09:59:06;;;;;;;19.13;10.23;;;23.40;99.90;;;;;;5051199;28;20039;-72
2022/07/20 10:01:37;;;;;;;15.27;7.85;;;23.20;99.90;;;;;;5047330;28;20102;-70
2022/07/20 10:04:05;;;;;;;14.57;8.77;;;23.00;99.90;;;;;;5047682;28;20071;-72
2022/07/20 10:06:33;;;;;;;16.30;8.48;;;22.70;99.90;;;;;;5044129;28;20021;-63
2022/07/20 10:09:00;;;;;;;20.83;8.73;;;22.70;99.90;;;;;;5055742;28;20541;-70
2022/07/20 10:11:26;;;;;;;19.52;8.43;;;23.00;99.90;;;;;;5054697;28;20041;-63
2022/07/20 10:13:54;;;;;;;18.27;8.25;;;23.50;99.90;;;;;;5034291;28;20028;-71
2022/07/20 10:16:30;;;;;;;14.63;8.43;;;23.80;99.90;;;;;;5051483;28;20048;-73
2022/07/20 10:18:57;;;;;;;21.15;8.70;;;23.50;99.90;;;;;;5054404;28;20016;-72
2022/07/20 10:21:33;;;;;;;18.83;8.05;;;24.00;99.90;;;;;;5052541;28;20032;-65
2022/07/20 10:24:18;;;;;;;14.18;7.97;;;23.50;99.90;;;;;;5060180;28;20036;-71
2022/07/20 10:26:48;;;;;;;17.52;9.07;;;23.20;99.90;;;;;;5044380;28;20500;-63
2022/07/20 10:29:34;;;;;;;16.02;8.38;;;23.50;99.90;;;;;;5042729;28;20090;-71
2022/07/20 10:32:08;;;;;;;15.02;7.93;;;23.90;99.90;;;;;;5049719;28;20063;-64
2022/07/20 10:34:47;;;;;;;13.48;7.20;;;24.70;99.90;;;;;;5025569;28;20036;-73
2022/07/20 10:37:28;;;;;;;15.15;7.88;;;25.00;99.90;;;;;;5049823;28;20037;-73
2022/07/20 10:39:57;;;;;;;15.23;8.10;;;24.60;99.90;;;;;;5062593;28;20131;-63
2022/07/20 10:42:34;;;;;;;13.48;7.97;;;24.60;99.90;;;;;;5055542;28;20044;-73
2022/07/20 10:45:23;;;;;;;14.48;7.70;;;24.60;99.90;;;;;;5074889;28;20039;-73
2022/07/20 10:48:01;;;;;;;14.13;8.23;;;25.00;99.90;;;;;;5057972;28;20078;-63
2022/07/20 10:50:37;;;;;;;12.75;7.57;;;24.80;99.90;;;;;;5056336;28;20470;-73
2022/07/20 10:53:14;;;;;;;14.48;8.00;;;25.00;99.90;;;;;;5071013;28;20040;-65
2022/07/20 10:55:55;;;;;;;17.63;8.48;;;25.20;99.90;;;;;;5061066;28;20373;-73
2022/07/20 10:58:33;;;;;;;15.37;8.07;;;25.30;99.90;;;;;;5059086;28;20029;-72
2022/07/20 11:01:05;;;;;;;16.70;8.98;;;25.10;99.90;;;;;;5074587;28;20294;-65
2022/07/20 11:03:50;;;;;;;18.45;8.18;;;24.80;99.90;;;;;;5074582;28;20032;-73
2022/07/20 11:06:20;;;;;;;12.25;7.65;;;25.00;99.90;;;;;;5074538;28;20234;-73
2022/07/20 11:08:51;;;;;;;14.77;8.48;;;24.80;99.90;;;;;;5073758;28;20424;-74
2022/07/20 11:11:23;;;;;;;16.07;8.77;;;25.20;99.90;;;;;;5074029;28;20476;-73
2022/07/20 11:13:49;;;;;;;18.00;8.57;;;25.20;99.90;;;;;;5074299;28;20031;-72
2022/07/20 11:16:20;;;;;;;15.07;8.73;;;25.20;99.90;;;;;;5074083;28;20020;-62
2022/07/20 11:18:48;;;;;;;14.15;8.20;;;25.40;99.90;;;;;;5074125;28;20032;-72
2022/07/20 11:21:14;;;;;;;14.65;7.95;;;25.10;99.90;;;;;;5074236;28;20056;-69
2022/07/20 11:23:50;;;;;;;15.73;7.78;;;25.30;99.90;;;;;;5074067;28;20032;-65
2022/07/20 11:26:20;;;;;;;13.55;8.23;;;25.40;99.90;;;;;;5073881;28;20431;-73
2022/07/20 11:28:51;;;;;;;17.52;8.35;;;24.80;99.90;;;;;;5073948;28;20028;-65
2022/07/20 11:31:23;;;;;;;11.88;7.38;;;24.50;99.90;;;;;;5074148;28;20033;-74
2022/07/20 11:33:52;;;;;;;13.77;7.85;;;24.70;99.90;;;;;;5073954;28;20020;-73
2022/07/20 11:36:27;;;;;;;14.88;8.57;;;25.20;99.90;;;;;;5074007;28;20028;-73
2022/07/20 11:39:14;;;;;;;13.15;7.82;;;25.20;99.90;;;;;;5073128;28;20032;-75
2022/07/20 11:41:42;;;;;;;13.52;8.48;;;25.40;99.90;;;;;;5071705;28;20645;-75
2022/07/20 11:44:15;;;;;;;19.40;8.05;;;25.50;99.90;;;;;;5054277;28;20027;-75
2022/07/20 11:46:43;;;;;;;15.32;8.73;;;25.40;99.90;;;;;;5064779;28;20028;-75
2022/07/20 11:49:14;;;;;;;15.70;8.45;;;25.60;99.90;;;;;;5073459;28;20029;-76
2022/07/20 11:51:42;;;;;;;14.38;9.00;;;26.10;99.90;;;;;;5063191;28;20041;-63
2022/07/20 11:54:08;;;;;;;13.70;7.90;;;26.10;99.90;;;;;;5061940;28;20497;-76
2022/07/20 11:56:36;;;;;;;15.32;8.57;;;26.00;99.90;;;;;;5052675;28;20090;-74
2022/07/20 11:59:05;;;;;;;12.65;8.70;;;24.90;99.90;;;;;;5055018;28;20033;-79
2022/07/20 12:01:33;;;;;;;12.77;7.60;;;24.60;99.90;;;;;;5053795;28;20473;-74
2022/07/20 12:04:08;;;;;;;16.05;9.48;;;24.50;99.90;;;;;;5062524;28;20033;-64
2022/07/20 12:06:37;;;;;;;16.95;8.90;;;25.00;99.90;;;;;;5063448;28;20055;-74
2022/07/20 12:09:02;;;;;;;19.20;9.15;;;25.30;99.90;;;;;;5042923;28;20021;-76
2022/07/20 12:11:28;;;;;;;14.75;9.38;;;25.00;99.90;;;;;;5054376;28;20029;-63
2022/07/20 12:13:54;;;;;;;19.38;9.63;;;25.40;99.90;;;;;;5059030;28;20124;-77
2022/07/20 12:16:20;;;;;;;16.40;9.60;;;25.40;99.90;;;;;;5068556;28;20021;-72
2022/07/20 12:18:53;;;;;;;15.02;10.00;;;25.40;99.90;;;;;;5052436;28;20404;-67
2022/07/20 12:21:27;;;;;;;16.42;9.95;;;25.00;99.90;;;;;;5059692;28;20091;-74
2022/07/20 12:23:54;;;;;;;16.70;9.55;;;25.00;99.90;;;;;;5057725;28;20032;-73
2022/07/20 12:26:24;;;;;;;13.70;8.88;;;25.40;99.90;;;;;;5048498;28;20489;-78
2022/07/20 12:28:51;;;;;;;14.07;9.02;;;25.20;99.90;;;;;;5058223;28;20064;-64
2022/07/20 12:31:19;;;;;;;19.67;10.65;;;25.30;99.90;;;;;;5051807;28;20487;-70
2022/07/20 12:34:12;;;;;;;19.90;10.00;;;25.60;99.90;;;;;;5059202;28;20117;-78
2022/07/20 12:36:45;;;;;;;14.73;9.02;;;26.40;99.90;;;;;;5067506;28;20029;-78